Latest Weather Observations for Warra

IDT60801

Issued at 9:31 pm EDT Wednesday 1 April 2015 (issued every 30 minutes, with the page automatically refreshed every 10 minutes)

About weather observations | Map of weather stations | Latest weather observations for TAS | Other Formats
Station Details ID: 097024 Name: WARRA Lat: -43.06 Lon: 146.70 Height: 495.0 m
Data from the previous 72 hours. | See also: Recent months at Warra
Date/Time
EDT
Temp
°C
App
Temp
°C
Dew
Point
Rel
Hum
%
Delta-T
°C
Wind Press
QNH
hPa
Press
MSL
hPa
Rain
since 9 am
mm
Dir
 
Spd
km/h
Gust
km/h
Spd
kts
Gust
kts
01/09:30pm 14.0 12.6 9.4 74 2.4 NW 7 15 4 8 - - 0.0
01/09:00pm 14.6 13.4 9.6 72 2.6 NNW 6 11 3 6 - - 0.0
01/08:30pm 15.2 13.4 9.3 68 3.1 NNW 9 15 5 8 - - 0.0
01/08:00pm 16.0 14.0 8.7 62 3.8 WNW 9 19 5 10 - - 0.0
01/07:30pm 16.9 11.9 8.1 56 4.6 NW 24 37 13 20 - - 0.0
01/07:00pm 17.8 15.2 9.2 57 4.6 W 13 24 7 13 - - 0.0
01/06:30pm 18.7 14.5 8.4 51 5.5 NW 20 35 11 19 - - 0.0
01/06:00pm 19.2 15.5 7.9 48 5.9 NW 17 32 9 17 - - 0.0
01/05:30pm 19.1 15.8 8.1 49 5.8 NW 15 24 8 13 - - 0.0
01/05:00pm 19.7 16.0 8.1 47 6.1 NW 17 28 9 15 - - 0.0
01/04:30pm 19.8 15.7 7.9 46 6.3 NW 19 33 10 18 - - 0.0
01/04:00pm 20.6 17.1 8.9 47 6.3 NW 17 28 9 15 - - 0.0
01/03:30pm 20.9 16.9 8.2 44 6.8 NW 19 32 10 17 - - 0.0
01/03:00pm 21.9 18.0 9.4 45 6.9 NW 20 37 11 20 - - 0.0
01/02:30pm 20.8 17.5 9.4 48 6.2 NNW 17 33 9 18 - - 0.0
01/02:00pm 20.1 16.3 9.1 49 6.0 NW 19 33 10 18 - - 0.0
01/01:30pm 19.6 16.1 8.6 49 5.9 NNW 17 30 9 16 - - 0.0
01/01:00pm 19.5 14.9 8.2 48 6.0 NW 22 39 12 21 - - 0.0
01/12:30pm 18.7 15.2 8.9 53 5.2 NNW 17 28 9 15 - - 0.0
01/12:00pm 18.8 14.9 7.3 47 6.0 NNW 17 35 9 19 - - 0.0
01/11:30am 18.5 13.6 7.0 47 5.9 NW 22 46 12 25 - - 0.0
01/11:00am 18.3 13.7 6.5 46 6.0 NNW 20 46 11 25 - - 0.0
01/10:30am 16.8 13.1 6.3 50 5.3 NW 15 32 8 17 - - 0.0
01/10:00am 16.6 13.6 5.9 49 5.3 NW 11 19 6 10 - - 0.0
01/09:30am 16.7 12.5 5.6 48 5.5 NW 17 30 9 16 - - 0.0
01/09:00am 15.2 10.8 4.6 49 5.1 NNW 17 28 9 15 - - 0.0
01/08:30am 12.1 10.0 6.8 70 2.6 W 7 9 4 5 - - 0.0
01/08:00am 13.5 10.6 4.6 55 4.2 WNW 9 13 5 7 - - 0.0
01/07:30am 13.1 9.4 4.5 56 4.1 NNW 13 22 7 12 - - 0.0
01/07:00am 12.7 10.2 4.7 58 3.8 NW 7 20 4 11 - - 0.0
01/06:30am 13.1 9.2 5.5 60 3.7 NW 15 26 8 14 - - 0.0
01/06:00am 9.6 7.4 7.7 88 0.9 W 9 13 5 7 - - 0.0
01/05:30am 10.6 8.4 7.7 82 1.4 W 9 15 5 8 - - 0.0
01/05:00am 12.3 8.5 7.4 72 2.4 NW 17 28 9 15 - - 0.0
01/04:30am 12.0 8.7 7.9 76 2.1 NW 15 26 8 14 - - 0.0
01/04:00am 12.0 7.9 8.7 80 1.7 NW 20 33 11 18 - - 0.0
01/03:30am 10.2 8.2 10.2 100 0.0 WNW 11 19 6 10 - - 0.0
01/03:00am 8.9 7.0 8.9 100 0.0 WNW 9 22 5 12 - - 0.0
01/02:30am 8.7 7.7 8.7 100 0.0 WSW 4 9 2 5 - - 0.0
01/02:00am 8.9 7.5 8.9 100 0.0 SSW 6 9 3 5 - - 0.0
01/01:30am 9.1 7.6 9.1 100 0.0 SW 7 9 4 5 - - 0.0
01/01:00am 9.2 7.9 9.2 100 0.0 WSW 6 9 3 5 - - 0.0
01/12:30am 9.9 9.5 9.9 100 0.0 SSW 2 6 1 3 - - 0.0
01/12:00am 10.2 9.0 10.2 100 0.0 W 7 13 4 7 - - 0.0
 
Date/Time
EDT
Temp
°C
App
Temp
°C
Dew
Point
Rel
Hum
%
Delta-T
°C
Wind Press
QNH
hPa
Press
MSL
hPa
Rain
since 9 am
mm
Dir
 
Spd
km/h
Gust
km/h
Spd
kts
Gust
kts
31/11:30pm 9.6 8.2 9.5 99 0.1 W 7 13 4 7 - - 0.0
31/11:00pm 9.8 8.6 9.7 99 0.1 W 6 9 3 5 - - 0.0
31/10:30pm 10.1 8.6 9.3 95 0.4 W 7 11 4 6 - - 0.0
31/10:00pm 10.3 8.4 8.9 91 0.7 WSW 9 13 5 7 - - 0.0
31/09:30pm 11.0 8.7 9.1 88 1.0 WSW 11 24 6 13 - - 0.0
31/09:00pm 11.2 9.8 8.9 86 1.2 WSW 6 13 3 7 - - 0.0
31/08:30pm 11.6 9.3 9.0 84 1.3 WNW 11 24 6 13 - - 0.0
31/08:00pm 11.6 9.7 9.0 84 1.3 WSW 9 13 5 7 - - 0.0
31/07:30pm 12.2 9.6 9.4 83 1.5 WSW 13 19 7 10 - - 0.0
31/07:00pm 12.8 10.2 9.4 80 1.8 WSW 13 19 7 10 - - 0.0
31/06:30pm 13.7 11.9 9.6 76 2.2 WSW 9 13 5 7 - - 0.0
31/06:00pm 15.3 13.6 9.7 69 3.0 W 9 17 5 9 - - 0.0
31/05:30pm 15.9 14.6 10.0 68 3.2 W 7 13 4 7 - - 0.0
31/05:00pm 16.7 14.6 9.9 64 3.7 NW 11 19 6 10 - - 0.0
31/04:30pm 16.5 15.0 10.6 68 3.2 WNW 9 20 5 11 - - 0.0
31/04:00pm 16.5 14.5 10.1 66 3.5 WSW 11 20 6 11 - - 0.0
31/03:30pm 15.8 14.1 9.7 67 3.3 SSW 9 17 5 9 - - 0.0
31/03:00pm 15.9 13.9 10.0 68 3.2 SW 11 20 6 11 - - 0.0
31/02:30pm 15.4 12.8 9.3 67 3.2 WSW 13 26 7 14 - - 0.0
31/02:00pm 15.5 12.5 9.2 66 3.3 WSW 15 24 8 13 - - 0.0
31/01:30pm 16.2 13.3 9.8 66 3.4 W 15 32 8 17 - - 0.0
31/01:00pm 16.4 14.8 10.3 67 3.3 W 9 17 5 9 - - 0.0
31/12:30pm 16.0 13.7 10.5 70 3.0 W 13 24 7 13 - - 0.0
31/12:00pm 15.1 12.9 9.2 68 3.1 WNW 11 24 6 13 - - 0.0
31/11:30am 14.8 12.9 9.0 68 3.0 NW 9 15 5 8 - - 0.0
31/11:00am 13.9 10.6 9.5 75 2.3 NW 17 24 9 13 - - 0.0
31/10:30am 13.0 10.0 9.1 77 2.0 NW 15 22 8 12 - - 0.0
31/10:00am 12.4 8.9 8.9 79 1.8 NW 17 24 9 13 - - 0.0
31/09:30am 12.6 10.4 9.2 80 1.8 NW 11 15 6 8 - - 0.0
31/09:00am 11.3 8.2 8.9 85 1.2 NW 15 22 8 12 - - 0.0
31/08:30am 10.4 7.7 8.8 90 0.8 WNW 13 20 7 11 - - 0.0
31/08:00am 9.3 7.4 9.0 98 0.2 WNW 9 19 5 10 - - 0.0
31/07:30am 8.6 6.1 8.3 98 0.1 WNW 11 20 6 11 - - 0.0
31/07:00am 8.8 6.0 8.7 99 0.0 WNW 13 20 7 11 - - 0.0
31/06:30am 9.0 5.9 8.9 99 0.1 WNW 15 26 8 14 - - 0.0
31/06:00am 9.2 6.5 8.9 98 0.2 NW 13 19 7 10 - - 0.0
31/05:30am 9.1 7.2 9.0 99 0.1 N 9 15 5 8 - - 0.0
31/05:00am 8.7 6.3 8.7 100 0.0 N 11 15 6 8 - - 0.0
31/04:30am 7.7 5.5 7.7 100 0.0 N 9 13 5 7 - - 0.0
31/04:00am 7.8 6.0 7.8 100 0.0 N 7 11 4 6 - - 0.0
31/03:30am 7.2 5.4 7.2 100 0.0 N 6 11 3 6 - - 0.0
31/03:00am 7.8 6.0 7.8 100 0.0 N 7 13 4 7 - - 0.0
31/02:30am 7.8 6.5 7.5 98 0.1 E 4 7 2 4 - - 0.0
31/02:00am 8.1 7.4 6.9 92 0.6 CALM 0 0 0 0 - - 0.0
31/01:30am 9.1 7.4 7.4 89 0.8 E 6 9 3 5 - - 0.0
31/01:00am 9.6 7.3 7.5 87 1.0 W 9 19 5 10 - - 0.0
31/12:30am 9.5 7.7 7.3 86 1.1 WSW 6 15 3 8 - - 0.0
31/12:00am 9.9 5.5 7.5 85 1.2 W 20 33 11 18 - - 0.0
 
Date/Time
EDT
Temp
°C
App
Temp
°C
Dew
Point
Rel
Hum
%
Delta-T
°C
Wind Press
QNH
hPa
Press
MSL
hPa
Rain
since 9 am
mm
Dir
 
Spd
km/h
Gust
km/h
Spd
kts
Gust
kts
30/11:30pm 9.7 5.5 7.6 87 1.0 WNW 19 28 10 15 - - 0.0
30/11:00pm 9.9 7.1 8.5 91 0.7 WNW 13 20 7 11 - - 0.0
30/10:30pm 10.3 6.4 8.6 89 0.9 NW 19 26 10 14 - - 0.0
30/10:00pm 10.5 7.0 8.6 88 1.0 NW 17 28 9 15 - - 0.0
30/09:30pm 10.7 8.3 8.5 86 1.1 NNW 11 20 6 11 - - 0.0
30/09:00pm 10.9 8.9 8.8 87 1.1 NNW 9 15 5 8 - - 0.0
30/08:30pm 11.1 9.1 8.5 84 1.3 NNW 9 15 5 8 - - 0.0
30/08:00pm 11.3 8.4 8.2 81 1.6 NW 13 24 7 13 - - 0.0
30/07:30pm 11.5 8.7 8.5 82 1.5 NW 13 24 7 13 - - 0.0
30/07:00pm 11.9 9.8 8.2 78 1.9 NW 9 13 5 7 - - 0.0
30/06:30pm 12.5 10.4 8.2 75 2.2 NW 9 22 5 12 - - 0.0
30/06:00pm 13.0 9.2 7.7 70 2.7 WNW 17 32 9 17 - - 0.0
30/05:30pm 13.6 9.8 7.4 66 3.1 WNW 17 35 9 19 - - 0.0
30/05:00pm 13.7 10.3 7.5 66 3.1 WNW 15 41 8 22 - - 0.0
30/04:30pm 13.9 9.7 7.4 65 3.3 WNW 19 30 10 16 - - 0.0
30/04:00pm 14.3 9.1 7.4 63 3.5 NW 24 43 13 23 - - 0.0
30/03:30pm 13.9 9.6 7.9 67 3.1 WNW 20 33 11 18 - - 0.0
30/03:00pm 14.3 10.2 8.5 68 3.0 WNW 20 33 11 18 - - 0.0
30/02:30pm 15.0 10.6 8.9 67 3.2 W 22 41 12 22 - - 0.0
30/02:00pm 15.7 11.2 10.0 69 3.1 WNW 24 43 13 23 - - 0.0
30/01:30pm 16.7 13.2 10.8 68 3.2 WNW 20 35 11 19 - - 0.0
30/01:00pm 15.6 11.1 9.9 69 3.1 NW 24 35 13 19 - - 0.0
30/12:30pm 15.5 10.8 9.2 66 3.3 WNW 24 48 13 26 - - 0.0
30/12:00pm 14.8 8.8 8.5 66 3.3 WNW 30 48 16 26 - - 0.0
30/11:51am 15.1 9.6 9.2 68 3.1 WNW 28 46 15 25 - - 0.0
30/11:30am 14.6 10.0 9.8 73 2.5 WNW 24 39 13 21 - - 0.0
30/11:00am 13.4 9.8 9.8 79 1.9 WNW 19 30 10 16 - - 0.0
30/10:30am 13.4 10.1 9.5 77 2.0 WNW 17 32 9 17 - - 0.0
30/10:00am 13.2 10.3 9.5 78 1.9 NNW 15 20 8 11 - - 0.0
30/09:30am 11.9 9.2 8.9 82 1.5 NNW 13 22 7 12 - - 0.0
30/09:00am 11.3 8.8 8.0 80 1.7 N 11 22 6 12 - - 3.2
30/08:30am 10.9 8.4 8.0 82 1.4 NNW 11 19 6 10 - - 3.2
30/08:00am 10.6 8.0 7.8 83 1.4 NNW 11 20 6 11 - - 3.2
30/07:30am 10.8 8.6 7.7 81 1.5 NNW 9 22 5 12 - - 3.2
30/07:00am 10.5 8.5 7.0 79 1.7 N 7 13 4 7 - - 3.2
30/06:30am 10.5 7.7 7.0 79 1.7 NW 11 32 6 17 - - 3.2
30/06:00am 10.5 8.2 7.4 81 1.5 NNW 9 19 5 10 - - 3.2
30/05:30am 10.4 7.3 7.3 81 1.5 NW 13 32 7 17 - - 3.2
30/05:00am 10.9 7.0 7.0 77 1.9 NW 17 28 9 15 - - 3.2
30/04:30am 11.2 6.7 7.1 76 2.0 NW 20 35 11 19 - - 3.2
30/04:00am 10.5 6.2 7.2 80 1.6 NW 19 30 10 16 - - 3.2
30/03:30am 10.6 5.7 7.1 79 1.7 WNW 22 33 12 18 - - 3.2
30/03:00am 10.6 7.0 6.9 78 1.8 WNW 15 28 8 15 - - 3.2
30/02:30am 10.6 6.2 6.4 75 2.0 WNW 19 35 10 19 - - 3.2
30/02:00am 10.2 6.4 6.0 75 2.0 WNW 15 26 8 14 - - 3.2
30/01:30am 9.8 5.9 5.4 74 2.1 WNW 15 26 8 14 - - 3.2
30/01:00am 10.0 5.1 5.2 72 2.2 WNW 20 39 11 21 - - 3.2
30/12:30am 9.6 5.3 5.4 75 2.0 WNW 17 28 9 15 - - 3.2
30/12:00am 9.6 5.8 5.8 77 1.8 NW 15 24 8 13 - - 3.2
 
Date/Time
EDT
Temp
°C
App
Temp
°C
Dew
Point
Rel
Hum
%
Delta-T
°C
Wind Press
QNH
hPa
Press
MSL
hPa
Rain
since 9 am
mm
Dir
 
Spd
km/h
Gust
km/h
Spd
kts
Gust
kts
29/11:30pm 10.2 5.5 6.2 76 1.9 WNW 20 33 11 18 - - 3.2
29/11:00pm 9.4 6.2 7.0 85 1.2 NNW 13 19 7 10 - - 3.0
29/10:30pm 9.2 6.8 7.0 86 1.1 N 9 13 5 7 - - 3.0
29/10:00pm 9.3 6.9 6.9 85 1.2 N 9 13 5 7 - - 3.0

Other Formats:

Comma delimited format used in spreadsheet applications
http://www.bom.gov.au/fwo/IDT60801/IDT60801.95962.axf

JavaScript Object Notation format (JSON) in row-major order
http://www.bom.gov.au/fwo/IDT60801/IDT60801.95962.json